sensor_id;sensor_type;location;lat;lon;timestamp;P1;durP1;ratioP1;P2;durP2;ratioP2
4943;SDS011;2487;52.224;11.006;2022-08-19T00:01:36;0.20;;;0.20;;
4943;SDS011;2487;52.224;11.006;2022-08-19T00:04:04;0.23;;;0.23;;
4943;SDS011;2487;52.224;11.006;2022-08-19T00:06:31;0.20;;;0.20;;
4943;SDS011;2487;52.224;11.006;2022-08-19T00:08:58;0.20;;;0.20;;
4943;SDS011;2487;52.224;11.006;2022-08-19T00:11:26;0.20;;;0.20;;
4943;SDS011;2487;52.224;11.006;2022-08-19T00:13:53;0.20;;;0.20;;
4943;SDS011;2487;52.224;11.006;2022-08-19T00:16:19;0.20;;;0.20;;
4943;SDS011;2487;52.224;11.006;2022-08-19T00:18:46;0.20;;;0.20;;
4943;SDS011;2487;52.224;11.006;2022-08-19T00:21:12;0.20;;;0.20;;
4943;SDS011;2487;52.224;11.006;2022-08-19T00:23:39;0.20;;;0.20;;
4943;SDS011;2487;52.224;11.006;2022-08-19T00:26:06;0.20;;;0.20;;
4943;SDS011;2487;52.224;11.006;2022-08-19T00:28:32;0.20;;;0.20;;
4943;SDS011;2487;52.224;11.006;2022-08-19T00:30:58;0.20;;;0.20;;
4943;SDS011;2487;52.224;11.006;2022-08-19T00:33:24;0.20;;;0.20;;
4943;SDS011;2487;52.224;11.006;2022-08-19T00:35:50;0.20;;;0.20;;
4943;SDS011;2487;52.224;11.006;2022-08-19T00:38:16;0.20;;;0.20;;
4943;SDS011;2487;52.224;11.006;2022-08-19T00:40:43;0.20;;;0.20;;
4943;SDS011;2487;52.224;11.006;2022-08-19T00:43:11;0.20;;;0.20;;
4943;SDS011;2487;52.224;11.006;2022-08-19T00:45:40;0.20;;;0.20;;
4943;SDS011;2487;52.224;11.006;2022-08-19T00:48:08;0.20;;;0.20;;
4943;SDS011;2487;52.224;11.006;2022-08-19T00:50:38;0.20;;;0.20;;
4943;SDS011;2487;52.224;11.006;2022-08-19T00:53:05;0.20;;;0.20;;
4943;SDS011;2487;52.224;11.006;2022-08-19T00:55:32;0.20;;;0.20;;
4943;SDS011;2487;52.224;11.006;2022-08-19T00:58:03;0.20;;;0.20;;
4943;SDS011;2487;52.224;11.006;2022-08-19T01:00:32;0.20;;;0.20;;
4943;SDS011;2487;52.224;11.006;2022-08-19T01:03:09;0.20;;;0.20;;
4943;SDS011;2487;52.224;11.006;2022-08-19T01:05:37;0.30;;;0.30;;
4943;SDS011;2487;52.224;11.006;2022-08-19T01:08:05;0.20;;;0.20;;
4943;SDS011;2487;52.224;11.006;2022-08-19T01:10:33;0.20;;;0.20;;
4943;SDS011;2487;52.224;11.006;2022-08-19T01:13:04;0.20;;;0.20;;
4943;SDS011;2487;52.224;11.006;2022-08-19T01:15:39;0.20;;;0.20;;
4943;SDS011;2487;52.224;11.006;2022-08-19T01:18:10;0.20;;;0.20;;
4943;SDS011;2487;52.224;11.006;2022-08-19T01:20:37;0.20;;;0.20;;
4943;SDS011;2487;52.224;11.006;2022-08-19T01:23:07;0.20;;;0.20;;
4943;SDS011;2487;52.224;11.006;2022-08-19T01:25:44;0.20;;;0.20;;
4943;SDS011;2487;52.224;11.006;2022-08-19T01:28:19;0.20;;;0.20;;
4943;SDS011;2487;52.224;11.006;2022-08-19T01:30:47;0.20;;;0.20;;
4943;SDS011;2487;52.224;11.006;2022-08-19T01:33:13;17.93;;;1.20;;
4943;SDS011;2487;52.224;11.006;2022-08-19T01:35:40;0.20;;;0.20;;
4943;SDS011;2487;52.224;11.006;2022-08-19T01:38:08;0.20;;;0.20;;
4943;SDS011;2487;52.224;11.006;2022-08-19T01:40:44;0.20;;;0.20;;
4943;SDS011;2487;52.224;11.006;2022-08-19T01:43:10;0.60;;;0.60;;
4943;SDS011;2487;52.224;11.006;2022-08-19T01:45:36;0.50;;;0.50;;
4943;SDS011;2487;52.224;11.006;2022-08-19T01:48:04;6.40;;;0.90;;
4943;SDS011;2487;52.224;11.006;2022-08-19T01:50:31;0.90;;;0.70;;
4943;SDS011;2487;52.224;11.006;2022-08-19T01:52:57;3.40;;;0.80;;
4943;SDS011;2487;52.224;11.006;2022-08-19T01:55:25;2.20;;;0.70;;
4943;SDS011;2487;52.224;11.006;2022-08-19T01:57:53;0.40;;;0.40;;
4943;SDS011;2487;52.224;11.006;2022-08-19T02:00:24;0.30;;;0.30;;
4943;SDS011;2487;52.224;11.006;2022-08-19T02:02:51;0.30;;;0.30;;
4943;SDS011;2487;52.224;11.006;2022-08-19T02:05:16;0.50;;;0.50;;
4943;SDS011;2487;52.224;11.006;2022-08-19T02:07:43;0.50;;;0.50;;
4943;SDS011;2487;52.224;11.006;2022-08-19T02:10:12;0.57;;;0.50;;
4943;SDS011;2487;52.224;11.006;2022-08-19T02:12:41;2.50;;;0.70;;
4943;SDS011;2487;52.224;11.006;2022-08-19T02:15:07;0.90;;;0.70;;
4943;SDS011;2487;52.224;11.006;2022-08-19T02:17:33;1.93;;;0.50;;
4943;SDS011;2487;52.224;11.006;2022-08-19T02:19:59;0.30;;;0.30;;
4943;SDS011;2487;52.224;11.006;2022-08-19T02:22:25;0.53;;;0.53;;
4943;SDS011;2487;52.224;11.006;2022-08-19T02:24:52;0.50;;;0.50;;
4943;SDS011;2487;52.224;11.006;2022-08-19T02:27:18;0.50;;;0.50;;
4943;SDS011;2487;52.224;11.006;2022-08-19T02:29:45;1.40;;;0.70;;
4943;SDS011;2487;52.224;11.006;2022-08-19T02:32:12;0.50;;;0.50;;
4943;SDS011;2487;52.224;11.006;2022-08-19T02:34:38;1.63;;;0.80;;
4943;SDS011;2487;52.224;11.006;2022-08-19T02:37:04;12.20;;;2.13;;
4943;SDS011;2487;52.224;11.006;2022-08-19T02:39:30;0.30;;;0.30;;
4943;SDS011;2487;52.224;11.006;2022-08-19T02:41:56;1.37;;;0.70;;
4943;SDS011;2487;52.224;11.006;2022-08-19T02:44:23;1.00;;;0.70;;
4943;SDS011;2487;52.224;11.006;2022-08-19T02:46:49;2.30;;;0.70;;
4943;SDS011;2487;52.224;11.006;2022-08-19T02:49:15;11.20;;;0.90;;
4943;SDS011;2487;52.224;11.006;2022-08-19T02:51:42;4.73;;;0.80;;
4943;SDS011;2487;52.224;11.006;2022-08-19T02:54:09;3.07;;;0.80;;
4943;SDS011;2487;52.224;11.006;2022-08-19T02:56:37;2.50;;;0.80;;
4943;SDS011;2487;52.224;11.006;2022-08-19T02:59:04;2.10;;;0.60;;
4943;SDS011;2487;52.224;11.006;2022-08-19T03:01:36;41.70;;;1.10;;
4943;SDS011;2487;52.224;11.006;2022-08-19T03:04:04;48.00;;;1.30;;
4943;SDS011;2487;52.224;11.006;2022-08-19T03:06:31;20.57;;;2.80;;
4943;SDS011;2487;52.224;11.006;2022-08-19T03:08:57;10.57;;;0.90;;
4943;SDS011;2487;52.224;11.006;2022-08-19T03:11:24;14.93;;;1.00;;
4943;SDS011;2487;52.224;11.006;2022-08-19T03:13:52;0.40;;;0.40;;
4943;SDS011;2487;52.224;11.006;2022-08-19T03:16:23;0.50;;;0.50;;
4943;SDS011;2487;52.224;11.006;2022-08-19T03:18:50;0.40;;;0.40;;
4943;SDS011;2487;52.224;11.006;2022-08-19T03:21:22;0.40;;;0.40;;
4943;SDS011;2487;52.224;11.006;2022-08-19T03:23:49;0.43;;;0.43;;
4943;SDS011;2487;52.224;11.006;2022-08-19T03:26:16;0.47;;;0.47;;
4943;SDS011;2487;52.224;11.006;2022-08-19T03:28:42;0.50;;;0.50;;
4943;SDS011;2487;52.224;11.006;2022-08-19T03:31:12;0.60;;;0.60;;
4943;SDS011;2487;52.224;11.006;2022-08-19T03:33:39;0.40;;;0.40;;
4943;SDS011;2487;52.224;11.006;2022-08-19T03:38:36;0.40;;;0.40;;
4943;SDS011;2487;52.224;11.006;2022-08-19T03:41:07;0.50;;;0.50;;
4943;SDS011;2487;52.224;11.006;2022-08-19T03:43:43;0.50;;;0.50;;
4943;SDS011;2487;52.224;11.006;2022-08-19T03:46:12;0.50;;;0.50;;
4943;SDS011;2487;52.224;11.006;2022-08-19T03:48:41;0.50;;;0.50;;
4943;SDS011;2487;52.224;11.006;2022-08-19T03:51:08;0.50;;;0.50;;
4943;SDS011;2487;52.224;11.006;2022-08-19T03:53:42;0.50;;;0.50;;
4943;SDS011;2487;52.224;11.006;2022-08-19T03:56:08;0.50;;;0.50;;
4943;SDS011;2487;52.224;11.006;2022-08-19T03:58:35;0.50;;;0.50;;
4943;SDS011;2487;52.224;11.006;2022-08-19T04:01:02;0.50;;;0.50;;
4943;SDS011;2487;52.224;11.006;2022-08-19T04:03:43;0.50;;;0.50;;
4943;SDS011;2487;52.224;11.006;2022-08-19T04:08:43;0.50;;;0.50;;
4943;SDS011;2487;52.224;11.006;2022-08-19T04:11:14;0.50;;;0.50;;
4943;SDS011;2487;52.224;11.006;2022-08-19T04:13:42;0.50;;;0.50;;
4943;SDS011;2487;52.224;11.006;2022-08-19T04:16:10;0.50;;;0.50;;
4943;SDS011;2487;52.224;11.006;2022-08-19T04:18:37;0.50;;;0.50;;
4943;SDS011;2487;52.224;11.006;2022-08-19T04:21:04;0.50;;;0.50;;
4943;SDS011;2487;52.224;11.006;2022-08-19T04:23:30;0.50;;;0.50;;
4943;SDS011;2487;52.224;11.006;2022-08-19T04:25:57;0.50;;;0.50;;
4943;SDS011;2487;52.224;11.006;2022-08-19T04:28:23;0.60;;;0.60;;
4943;SDS011;2487;52.224;11.006;2022-08-19T04:30:51;0.60;;;0.60;;
4943;SDS011;2487;52.224;11.006;2022-08-19T04:33:21;0.53;;;0.53;;
4943;SDS011;2487;52.224;11.006;2022-08-19T04:35:49;0.60;;;0.60;;
4943;SDS011;2487;52.224;11.006;2022-08-19T04:38:18;0.60;;;0.60;;
4943;SDS011;2487;52.224;11.006;2022-08-19T04:40:48;0.60;;;0.60;;
4943;SDS011;2487;52.224;11.006;2022-08-19T04:43:34;0.60;;;0.60;;
4943;SDS011;2487;52.224;11.006;2022-08-19T04:46:05;0.60;;;0.60;;
4943;SDS011;2487;52.224;11.006;2022-08-19T04:48:33;0.60;;;0.60;;
4943;SDS011;2487;52.224;11.006;2022-08-19T04:50:59;0.50;;;0.50;;
4943;SDS011;2487;52.224;11.006;2022-08-19T04:53:29;0.60;;;0.60;;
4943;SDS011;2487;52.224;11.006;2022-08-19T04:55:56;0.60;;;0.60;;
4943;SDS011;2487;52.224;11.006;2022-08-19T04:58:23;0.57;;;0.57;;
4943;SDS011;2487;52.224;11.006;2022-08-19T05:00:50;0.50;;;0.50;;
4943;SDS011;2487;52.224;11.006;2022-08-19T05:03:16;0.60;;;0.60;;
4943;SDS011;2487;52.224;11.006;2022-08-19T05:05:46;0.60;;;0.60;;
4943;SDS011;2487;52.224;11.006;2022-08-19T05:08:17;0.50;;;0.50;;
4943;SDS011;2487;52.224;11.006;2022-08-19T05:10:46;0.50;;;0.50;;
4943;SDS011;2487;52.224;11.006;2022-08-19T05:13:13;0.53;;;0.53;;
4943;SDS011;2487;52.224;11.006;2022-08-19T05:15:39;4.00;;;0.90;;
4943;SDS011;2487;52.224;11.006;2022-08-19T05:18:05;1.63;;;0.70;;
4943;SDS011;2487;52.224;11.006;2022-08-19T05:20:50;2.27;;;0.70;;
4943;SDS011;2487;52.224;11.006;2022-08-19T05:23:34;22.57;;;1.00;;
4943;SDS011;2487;52.224;11.006;2022-08-19T05:26:00;14.13;;;0.90;;
4943;SDS011;2487;52.224;11.006;2022-08-19T05:28:26;12.03;;;0.90;;
4943;SDS011;2487;52.224;11.006;2022-08-19T05:30:52;10.57;;;0.90;;
4943;SDS011;2487;52.224;11.006;2022-08-19T05:33:20;9.27;;;0.90;;
4943;SDS011;2487;52.224;11.006;2022-08-19T05:35:47;7.67;;;0.90;;
4943;SDS011;2487;52.224;11.006;2022-08-19T05:38:15;7.07;;;0.90;;
4943;SDS011;2487;52.224;11.006;2022-08-19T05:40:43;7.00;;;0.90;;
4943;SDS011;2487;52.224;11.006;2022-08-19T05:43:13;12.27;;;0.90;;
4943;SDS011;2487;52.224;11.006;2022-08-19T05:45:42;10.83;;;0.90;;
4943;SDS011;2487;52.224;11.006;2022-08-19T05:48:09;14.70;;;1.57;;
4943;SDS011;2487;52.224;11.006;2022-08-19T05:50:37;7.37;;;0.90;;
4943;SDS011;2487;52.224;11.006;2022-08-19T05:53:04;5.20;;;0.83;;
4943;SDS011;2487;52.224;11.006;2022-08-19T05:55:30;5.10;;;0.80;;
4943;SDS011;2487;52.224;11.006;2022-08-19T05:57:56;4.90;;;0.80;;
4943;SDS011;2487;52.224;11.006;2022-08-19T06:00:22;4.87;;;0.80;;
4943;SDS011;2487;52.224;11.006;2022-08-19T06:02:48;4.40;;;0.80;;
4943;SDS011;2487;52.224;11.006;2022-08-19T06:05:14;5.40;;;0.80;;
4943;SDS011;2487;52.224;11.006;2022-08-19T06:07:40;4.60;;;0.80;;
4943;SDS011;2487;52.224;11.006;2022-08-19T06:10:06;4.20;;;0.80;;
4943;SDS011;2487;52.224;11.006;2022-08-19T06:12:35;3.83;;;0.80;;
4943;SDS011;2487;52.224;11.006;2022-08-19T06:15:03;3.63;;;0.80;;
4943;SDS011;2487;52.224;11.006;2022-08-19T06:17:36;3.30;;;0.80;;
4943;SDS011;2487;52.224;11.006;2022-08-19T06:20:06;3.10;;;0.80;;
4943;SDS011;2487;52.224;11.006;2022-08-19T06:22:38;3.30;;;0.80;;
4943;SDS011;2487;52.224;11.006;2022-08-19T06:25:08;3.20;;;0.80;;
4943;SDS011;2487;52.224;11.006;2022-08-19T06:27:35;3.20;;;0.77;;
4943;SDS011;2487;52.224;11.006;2022-08-19T06:30:01;3.10;;;0.80;;
4943;SDS011;2487;52.224;11.006;2022-08-19T06:32:28;2.93;;;0.80;;
4943;SDS011;2487;52.224;11.006;2022-08-19T06:34:54;2.90;;;0.80;;
4943;SDS011;2487;52.224;11.006;2022-08-19T06:37:20;2.90;;;0.80;;
4943;SDS011;2487;52.224;11.006;2022-08-19T06:39:46;2.87;;;0.80;;
4943;SDS011;2487;52.224;11.006;2022-08-19T06:42:12;2.80;;;0.80;;
4943;SDS011;2487;52.224;11.006;2022-08-19T06:44:42;2.80;;;0.80;;
4943;SDS011;2487;52.224;11.006;2022-08-19T06:47:10;6.37;;;0.80;;
4943;SDS011;2487;52.224;11.006;2022-08-19T06:49:38;13.33;;;0.90;;
4943;SDS011;2487;52.224;11.006;2022-08-19T06:52:04;9.43;;;0.90;;
4943;SDS011;2487;52.224;11.006;2022-08-19T06:54:31;8.13;;;0.90;;
4943;SDS011;2487;52.224;11.006;2022-08-19T06:56:58;1.30;;;0.70;;
4943;SDS011;2487;52.224;11.006;2022-08-19T06:59:27;0.20;;;0.20;;
4943;SDS011;2487;52.224;11.006;2022-08-19T07:01:57;0.40;;;0.40;;
4943;SDS011;2487;52.224;11.006;2022-08-19T07:04:23;0.30;;;0.30;;
4943;SDS011;2487;52.224;11.006;2022-08-19T07:06:59;7.43;;;0.90;;
4943;SDS011;2487;52.224;11.006;2022-08-19T07:09:25;4.83;;;1.60;;
4943;SDS011;2487;52.224;11.006;2022-08-19T07:11:52;0.30;;;0.30;;
4943;SDS011;2487;52.224;11.006;2022-08-19T07:14:19;0.40;;;0.40;;
4943;SDS011;2487;52.224;11.006;2022-08-19T07:16:48;0.50;;;0.50;;
4943;SDS011;2487;52.224;11.006;2022-08-19T07:19:17;2.73;;;0.50;;
4943;SDS011;2487;52.224;11.006;2022-08-19T07:21:43;0.20;;;0.20;;
4943;SDS011;2487;52.224;11.006;2022-08-19T07:24:12;0.20;;;0.20;;
4943;SDS011;2487;52.224;11.006;2022-08-19T07:26:40;0.20;;;0.20;;
4943;SDS011;2487;52.224;11.006;2022-08-19T07:29:08;0.20;;;0.20;;
4943;SDS011;2487;52.224;11.006;2022-08-19T07:31:34;0.20;;;0.20;;
4943;SDS011;2487;52.224;11.006;2022-08-19T07:34:02;0.20;;;0.20;;
4943;SDS011;2487;52.224;11.006;2022-08-19T07:36:32;0.20;;;0.20;;
4943;SDS011;2487;52.224;11.006;2022-08-19T07:39:00;0.20;;;0.20;;
4943;SDS011;2487;52.224;11.006;2022-08-19T07:41:29;0.20;;;0.20;;
4943;SDS011;2487;52.224;11.006;2022-08-19T07:43:57;0.30;;;0.30;;
4943;SDS011;2487;52.224;11.006;2022-08-19T07:46:32;0.30;;;0.30;;
4943;SDS011;2487;52.224;11.006;2022-08-19T07:49:00;0.20;;;0.20;;
4943;SDS011;2487;52.224;11.006;2022-08-19T07:51:26;0.20;;;0.20;;
4943;SDS011;2487;52.224;11.006;2022-08-19T07:53:52;0.30;;;0.30;;
4943;SDS011;2487;52.224;11.006;2022-08-19T07:56:20;0.20;;;0.20;;
4943;SDS011;2487;52.224;11.006;2022-08-19T07:58:47;0.27;;;0.27;;
4943;SDS011;2487;52.224;11.006;2022-08-19T08:01:17;0.20;;;0.20;;
4943;SDS011;2487;52.224;11.006;2022-08-19T08:03:46;0.30;;;0.30;;
4943;SDS011;2487;52.224;11.006;2022-08-19T08:06:31;0.20;;;0.20;;
4943;SDS011;2487;52.224;11.006;2022-08-19T08:09:17;0.30;;;0.30;;
4943;SDS011;2487;52.224;11.006;2022-08-19T08:14:22;0.30;;;0.30;;
4943;SDS011;2487;52.224;11.006;2022-08-19T08:16:50;0.30;;;0.30;;
4943;SDS011;2487;52.224;11.006;2022-08-19T08:19:17;0.30;;;0.30;;
4943;SDS011;2487;52.224;11.006;2022-08-19T08:21:44;0.20;;;0.20;;
4943;SDS011;2487;52.224;11.006;2022-08-19T08:24:10;0.20;;;0.20;;
4943;SDS011;2487;52.224;11.006;2022-08-19T08:26:37;0.30;;;0.30;;
4943;SDS011;2487;52.224;11.006;2022-08-19T08:29:02;0.20;;;0.20;;
4943;SDS011;2487;52.224;11.006;2022-08-19T08:31:28;0.20;;;0.20;;
4943;SDS011;2487;52.224;11.006;2022-08-19T08:33:54;0.30;;;0.30;;
4943;SDS011;2487;52.224;11.006;2022-08-19T08:36:20;0.30;;;0.30;;
4943;SDS011;2487;52.224;11.006;2022-08-19T08:38:46;0.23;;;0.23;;
4943;SDS011;2487;52.224;11.006;2022-08-19T08:41:22;0.30;;;0.30;;
4943;SDS011;2487;52.224;11.006;2022-08-19T08:43:55;0.20;;;0.20;;
4943;SDS011;2487;52.224;11.006;2022-08-19T08:46:27;0.27;;;0.27;;
4943;SDS011;2487;52.224;11.006;2022-08-19T08:55:05;0.20;;;0.20;;
4943;SDS011;2487;52.224;11.006;2022-08-19T09:03:21;0.20;;;0.20;;
4943;SDS011;2487;52.224;11.006;2022-08-19T09:10:58;0.20;;;0.20;;
4943;SDS011;2487;52.224;11.006;2022-08-19T09:15:58;0.20;;;0.20;;
4943;SDS011;2487;52.224;11.006;2022-08-19T09:18:48;0.20;;;0.20;;
4943;SDS011;2487;52.224;11.006;2022-08-19T09:21:18;0.20;;;0.20;;
4943;SDS011;2487;52.224;11.006;2022-08-19T09:23:45;0.30;;;0.30;;
4943;SDS011;2487;52.224;11.006;2022-08-19T09:26:16;0.20;;;0.20;;
4943;SDS011;2487;52.224;11.006;2022-08-19T09:28:46;0.20;;;0.20;;
4943;SDS011;2487;52.224;11.006;2022-08-19T09:31:20;0.20;;;0.20;;
4943;SDS011;2487;52.224;11.006;2022-08-19T09:33:51;0.30;;;0.30;;
4943;SDS011;2487;52.224;11.006;2022-08-19T09:36:19;0.20;;;0.20;;
4943;SDS011;2487;52.224;11.006;2022-08-19T09:38:47;0.20;;;0.20;;
4943;SDS011;2487;52.224;11.006;2022-08-19T09:41:15;0.20;;;0.20;;
4943;SDS011;2487;52.224;11.006;2022-08-19T09:43:47;0.20;;;0.20;;
4943;SDS011;2487;52.224;11.006;2022-08-19T09:46:17;0.20;;;0.20;;
4943;SDS011;2487;52.224;11.006;2022-08-19T09:48:44;0.20;;;0.20;;
4943;SDS011;2487;52.224;11.006;2022-08-19T09:51:14;0.30;;;0.30;;
4943;SDS011;2487;52.224;11.006;2022-08-19T09:53:42;0.30;;;0.30;;
4943;SDS011;2487;52.224;11.006;2022-08-19T09:56:12;0.23;;;0.23;;
4943;SDS011;2487;52.224;11.006;2022-08-19T09:58:39;0.20;;;0.20;;
4943;SDS011;2487;52.224;11.006;2022-08-19T10:01:06;0.30;;;0.30;;
4943;SDS011;2487;52.224;11.006;2022-08-19T10:03:33;0.30;;;0.30;;
4943;SDS011;2487;52.224;11.006;2022-08-19T10:06:01;0.20;;;0.20;;
4943;SDS011;2487;52.224;11.006;2022-08-19T10:08:29;0.20;;;0.20;;
4943;SDS011;2487;52.224;11.006;2022-08-19T10:10:59;0.20;;;0.20;;
4943;SDS011;2487;52.224;11.006;2022-08-19T10:13:26;0.20;;;0.20;;
4943;SDS011;2487;52.224;11.006;2022-08-19T10:15:54;0.20;;;0.20;;
4943;SDS011;2487;52.224;11.006;2022-08-19T10:18:27;0.30;;;0.30;;
4943;SDS011;2487;52.224;11.006;2022-08-19T10:21:01;0.20;;;0.20;;
4943;SDS011;2487;52.224;11.006;2022-08-19T10:23:32;0.30;;;0.30;;
4943;SDS011;2487;52.224;11.006;2022-08-19T10:26:02;0.20;;;0.20;;
4943;SDS011;2487;52.224;11.006;2022-08-19T10:28:29;0.27;;;0.27;;
4943;SDS011;2487;52.224;11.006;2022-08-19T10:30:55;0.30;;;0.30;;
4943;SDS011;2487;52.224;11.006;2022-08-19T10:33:21;0.27;;;0.27;;
4943;SDS011;2487;52.224;11.006;2022-08-19T10:35:46;0.30;;;0.30;;
4943;SDS011;2487;52.224;11.006;2022-08-19T10:38:12;0.20;;;0.20;;
4943;SDS011;2487;52.224;11.006;2022-08-19T10:40:38;0.30;;;0.30;;
4943;SDS011;2487;52.224;11.006;2022-08-19T10:43:04;0.20;;;0.20;;
4943;SDS011;2487;52.224;11.006;2022-08-19T10:45:30;0.30;;;0.30;;
4943;SDS011;2487;52.224;11.006;2022-08-19T10:47:55;0.30;;;0.30;;
4943;SDS011;2487;52.224;11.006;2022-08-19T10:50:21;0.30;;;0.30;;
4943;SDS011;2487;52.224;11.006;2022-08-19T10:53:06;0.30;;;0.30;;
4943;SDS011;2487;52.224;11.006;2022-08-19T10:55:36;0.27;;;0.27;;
4943;SDS011;2487;52.224;11.006;2022-08-19T10:58:21;0.30;;;0.30;;
4943;SDS011;2487;52.224;11.006;2022-08-19T11:00:54;0.30;;;0.30;;
4943;SDS011;2487;52.224;11.006;2022-08-19T11:03:22;0.30;;;0.30;;
4943;SDS011;2487;52.224;11.006;2022-08-19T11:05:58;0.30;;;0.30;;
4943;SDS011;2487;52.224;11.006;2022-08-19T11:08:29;0.30;;;0.30;;
4943;SDS011;2487;52.224;11.006;2022-08-19T11:10:57;0.30;;;0.30;;
4943;SDS011;2487;52.224;11.006;2022-08-19T11:13:30;0.30;;;0.30;;
4943;SDS011;2487;52.224;11.006;2022-08-19T11:15:59;0.30;;;0.30;;
4943;SDS011;2487;52.224;11.006;2022-08-19T11:18:27;0.30;;;0.30;;
4943;SDS011;2487;52.224;11.006;2022-08-19T11:20:53;0.50;;;0.50;;
4943;SDS011;2487;52.224;11.006;2022-08-19T11:23:39;0.50;;;0.50;;
4943;SDS011;2487;52.224;11.006;2022-08-19T11:26:05;0.50;;;0.50;;
4943;SDS011;2487;52.224;11.006;2022-08-19T11:28:32;0.50;;;0.50;;
4943;SDS011;2487;52.224;11.006;2022-08-19T11:30:57;0.40;;;0.40;;
4943;SDS011;2487;52.224;11.006;2022-08-19T11:33:23;0.40;;;0.40;;
4943;SDS011;2487;52.224;11.006;2022-08-19T11:35:51;0.37;;;0.37;;
4943;SDS011;2487;52.224;11.006;2022-08-19T11:38:18;0.30;;;0.30;;
4943;SDS011;2487;52.224;11.006;2022-08-19T11:40:44;1.20;;;0.40;;
4943;SDS011;2487;52.224;11.006;2022-08-19T11:43:10;0.30;;;0.30;;
4943;SDS011;2487;52.224;11.006;2022-08-19T11:45:36;0.30;;;0.30;;
4943;SDS011;2487;52.224;11.006;2022-08-19T11:48:02;0.30;;;0.30;;
4943;SDS011;2487;52.224;11.006;2022-08-19T11:50:28;0.30;;;0.30;;
4943;SDS011;2487;52.224;11.006;2022-08-19T11:52:55;0.30;;;0.30;;
4943;SDS011;2487;52.224;11.006;2022-08-19T11:55:22;0.30;;;0.30;;
4943;SDS011;2487;52.224;11.006;2022-08-19T11:57:48;0.30;;;0.30;;
4943;SDS011;2487;52.224;11.006;2022-08-19T12:00:14;0.30;;;0.30;;
4943;SDS011;2487;52.224;11.006;2022-08-19T12:02:40;0.30;;;0.30;;
4943;SDS011;2487;52.224;11.006;2022-08-19T12:05:06;0.30;;;0.30;;
4943;SDS011;2487;52.224;11.006;2022-08-19T12:07:33;0.30;;;0.30;;
4943;SDS011;2487;52.224;11.006;2022-08-19T12:09:59;0.30;;;0.30;;
4943;SDS011;2487;52.224;11.006;2022-08-19T12:12:26;0.30;;;0.30;;
4943;SDS011;2487;52.224;11.006;2022-08-19T12:14:52;0.30;;;0.30;;
4943;SDS011;2487;52.224;11.006;2022-08-19T12:17:24;0.30;;;0.30;;
4943;SDS011;2487;52.224;11.006;2022-08-19T12:19:53;0.50;;;0.50;;
4943;SDS011;2487;52.224;11.006;2022-08-19T12:22:19;2.20;;;0.70;;
4943;SDS011;2487;52.224;11.006;2022-08-19T12:24:46;1.70;;;0.70;;
4943;SDS011;2487;52.224;11.006;2022-08-19T12:27:13;1.50;;;0.70;;
4943;SDS011;2487;52.224;11.006;2022-08-19T12:29:38;1.70;;;0.70;;
4943;SDS011;2487;52.224;11.006;2022-08-19T12:32:05;3.50;;;0.80;;
4943;SDS011;2487;52.224;11.006;2022-08-19T12:34:31;3.70;;;0.80;;
4943;SDS011;2487;52.224;11.006;2022-08-19T12:36:58;4.30;;;0.80;;
4943;SDS011;2487;52.224;11.006;2022-08-19T12:39:26;0.30;;;0.30;;
4943;SDS011;2487;52.224;11.006;2022-08-19T12:41:52;0.30;;;0.30;;
4943;SDS011;2487;52.224;11.006;2022-08-19T12:44:18;0.30;;;0.30;;
4943;SDS011;2487;52.224;11.006;2022-08-19T12:46:44;0.30;;;0.30;;
4943;SDS011;2487;52.224;11.006;2022-08-19T12:49:10;0.30;;;0.30;;
4943;SDS011;2487;52.224;11.006;2022-08-19T12:51:36;0.30;;;0.30;;
4943;SDS011;2487;52.224;11.006;2022-08-19T12:54:02;0.30;;;0.30;;
4943;SDS011;2487;52.224;11.006;2022-08-19T12:56:29;0.30;;;0.30;;
4943;SDS011;2487;52.224;11.006;2022-08-19T12:58:56;0.30;;;0.30;;
4943;SDS011;2487;52.224;11.006;2022-08-19T13:01:22;0.30;;;0.30;;
4943;SDS011;2487;52.224;11.006;2022-08-19T13:03:47;0.30;;;0.30;;
4943;SDS011;2487;52.224;11.006;2022-08-19T13:06:13;0.30;;;0.30;;
4943;SDS011;2487;52.224;11.006;2022-08-19T13:08:40;0.30;;;0.30;;
4943;SDS011;2487;52.224;11.006;2022-08-19T13:11:10;0.30;;;0.30;;
4943;SDS011;2487;52.224;11.006;2022-08-19T13:13:41;0.30;;;0.30;;
4943;SDS011;2487;52.224;11.006;2022-08-19T13:16:08;0.30;;;0.30;;
4943;SDS011;2487;52.224;11.006;2022-08-19T13:18:36;0.30;;;0.30;;
4943;SDS011;2487;52.224;11.006;2022-08-19T13:21:03;0.30;;;0.30;;
4943;SDS011;2487;52.224;11.006;2022-08-19T13:23:31;0.30;;;0.30;;
4943;SDS011;2487;52.224;11.006;2022-08-19T13:25:58;0.30;;;0.30;;
4943;SDS011;2487;52.224;11.006;2022-08-19T13:28:25;0.30;;;0.30;;
4943;SDS011;2487;52.224;11.006;2022-08-19T13:30:51;0.30;;;0.30;;
4943;SDS011;2487;52.224;11.006;2022-08-19T13:33:35;0.30;;;0.30;;
4943;SDS011;2487;52.224;11.006;2022-08-19T13:36:01;0.30;;;0.30;;
4943;SDS011;2487;52.224;11.006;2022-08-19T13:38:27;0.30;;;0.30;;
4943;SDS011;2487;52.224;11.006;2022-08-19T13:40:53;0.30;;;0.30;;
4943;SDS011;2487;52.224;11.006;2022-08-19T13:43:21;0.30;;;0.30;;
4943;SDS011;2487;52.224;11.006;2022-08-19T13:45:52;0.30;;;0.30;;
4943;SDS011;2487;52.224;11.006;2022-08-19T13:48:21;0.40;;;0.40;;
4943;SDS011;2487;52.224;11.006;2022-08-19T13:50:48;9.07;;;0.90;;
4943;SDS011;2487;52.224;11.006;2022-08-19T13:53:14;5.30;;;0.80;;
4943;SDS011;2487;52.224;11.006;2022-08-19T13:55:41;4.40;;;0.90;;
4943;SDS011;2487;52.224;11.006;2022-08-19T13:58:08;3.37;;;0.80;;
4943;SDS011;2487;52.224;11.006;2022-08-19T14:00:37;2.33;;;0.77;;
4943;SDS011;2487;52.224;11.006;2022-08-19T14:03:07;3.23;;;0.80;;
4943;SDS011;2487;52.224;11.006;2022-08-19T14:05:34;1.57;;;0.70;;
4943;SDS011;2487;52.224;11.006;2022-08-19T14:08:00;5.30;;;0.80;;
4943;SDS011;2487;52.224;11.006;2022-08-19T14:10:26;2.00;;;0.90;;
4943;SDS011;2487;52.224;11.006;2022-08-19T14:12:57;2.70;;;0.80;;
4943;SDS011;2487;52.224;11.006;2022-08-19T14:15:24;2.00;;;0.70;;
4943;SDS011;2487;52.224;11.006;2022-08-19T14:17:51;2.53;;;0.70;;
4943;SDS011;2487;52.224;11.006;2022-08-19T14:20:17;3.07;;;0.80;;
4943;SDS011;2487;52.224;11.006;2022-08-19T14:22:43;2.00;;;0.70;;
4943;SDS011;2487;52.224;11.006;2022-08-19T14:25:12;2.53;;;0.70;;
4943;SDS011;2487;52.224;11.006;2022-08-19T14:27:41;2.00;;;0.70;;
4943;SDS011;2487;52.224;11.006;2022-08-19T14:30:09;1.60;;;0.70;;
4943;SDS011;2487;52.224;11.006;2022-08-19T14:32:37;1.60;;;0.70;;
4943;SDS011;2487;52.224;11.006;2022-08-19T14:35:03;1.70;;;0.70;;
4943;SDS011;2487;52.224;11.006;2022-08-19T14:37:30;3.30;;;0.80;;
4943;SDS011;2487;52.224;11.006;2022-08-19T14:39:55;4.80;;;0.80;;
4943;SDS011;2487;52.224;11.006;2022-08-19T14:42:21;2.20;;;0.70;;
4943;SDS011;2487;52.224;11.006;2022-08-19T14:44:47;3.87;;;0.83;;
4943;SDS011;2487;52.224;11.006;2022-08-19T14:47:12;1.10;;;0.70;;
4943;SDS011;2487;52.224;11.006;2022-08-19T14:49:38;25.70;;;1.00;;
4943;SDS011;2487;52.224;11.006;2022-08-19T14:52:04;2.90;;;0.80;;
4943;SDS011;2487;52.224;11.006;2022-08-19T14:54:30;3.70;;;0.80;;
4943;SDS011;2487;52.224;11.006;2022-08-19T14:56:56;2.60;;;0.80;;
4943;SDS011;2487;52.224;11.006;2022-08-19T14:59:23;3.60;;;0.80;;
4943;SDS011;2487;52.224;11.006;2022-08-19T15:01:49;5.40;;;0.80;;
4943;SDS011;2487;52.224;11.006;2022-08-19T15:04:15;3.27;;;0.80;;
4943;SDS011;2487;52.224;11.006;2022-08-19T15:06:40;3.57;;;0.80;;
4943;SDS011;2487;52.224;11.006;2022-08-19T15:09:07;5.40;;;0.80;;
4943;SDS011;2487;52.224;11.006;2022-08-19T15:11:34;4.67;;;0.80;;
4943;SDS011;2487;52.224;11.006;2022-08-19T15:14:00;4.80;;;0.80;;
4943;SDS011;2487;52.224;11.006;2022-08-19T15:16:26;7.03;;;0.87;;
4943;SDS011;2487;52.224;11.006;2022-08-19T15:18:55;11.27;;;0.90;;
4943;SDS011;2487;52.224;11.006;2022-08-19T15:21:22;16.87;;;0.90;;
4943;SDS011;2487;52.224;11.006;2022-08-19T15:23:49;15.53;;;0.90;;
4943;SDS011;2487;52.224;11.006;2022-08-19T15:26:16;15.73;;;0.93;;
4943;SDS011;2487;52.224;11.006;2022-08-19T15:28:44;15.80;;;0.90;;
4943;SDS011;2487;52.224;11.006;2022-08-19T15:31:10;13.07;;;0.90;;
4943;SDS011;2487;52.224;11.006;2022-08-19T15:33:38;17.80;;;0.90;;